x

Freeport, Tx - 60 Nm South Of Freeport, Tx (42019) Wave Buoy

8:50am - Mon 1st Sep 2014 All times are CDT. -5 hours from GMT.

  • Sig Wave height 3.3ft
  • Swell Direction
  • Peak Period 7s
  • Average Period 5s
  • Wind
    9mph, 11mph gusts
  • Sea Temp 85°f
  • Air Temp 85°f
  • Sea Pressure 1014.2mb
  • Freeport, Tx - 60 Nm South Of Freeport, Tx
  • Freeport, Tx - 60 Nm South Of Freeport, Tx

More Historic Weather Station data

Upgrade to MSW Pro to gain access to the past 30 days of data for over 8000 Wavebouys and Weather Stations around the globe.

Join Pro

Comparision Forecast

View Surf forecast
   
Mon 09/01 8:50am 3.5ft 7s 5s 9 11 mph 1014.2mb 85f 85f
7:50am 3.5ft 8s 5s 11
mph
1014mb 85f 85f
6:50am 3.5ft 7s 5s 11 13 mph 1013.5mb 85f 84f
5:50am 3.5ft 7s 5s 11 13 mph 1013.1mb 85f 84f
4:50am 3.5ft 8s 5s 11 13 mph 1013mb 85f 84f
3:50am 4ft 6s 5s 11 13 mph 1013.1mb 85f 84f
2:50am 4ft 6s 5s 13 16 mph 1013.6mb 85f 84f
1:50am 4ft 6s 5s 18 20 mph 1013.6mb 85f 85f
12:50am 3.5ft 7s 5s 18 20 mph 1014mb 85f 85f
Sun 08/31 11:50pm 3.5ft 7s 5s 18 20 mph 1014.3mb 85f 85f
10:50pm 3.5ft 6s 5s 16 18 mph 1014.7mb 85f 85f
9:50pm 3.5ft 6s 5s 16 18 mph 1014.4mb 85f 85f
8:50pm 3.5ft 7s 5s 13 16 mph 1013.9mb 86f 85f
7:50pm 3.5ft 7s 5s 16 18 mph 1013.7mb 86f 85f
6:50pm 3.5ft 7s 5s 13 16 mph 1014mb 86f 86f
5:50pm 3.5ft 7s 5s 13 16 mph 1014.2mb 86f 86f
4:50pm 3.5ft 7s 5s 11 13 mph 1014.3mb 86f 86f
3:50pm 3.5ft 7s 5s 11 13 mph 1014.7mb 86f 86f
2:50pm 3.5ft 8s 5s 9
mph
1015.2mb 86f 86f
1:50pm 3.5ft 7s 5s 7 9 mph 1016mb 86f 85f
12:50pm 3.5ft 8s 5s 9 11 mph 1016.4mb 86f 83f
11:50am 4ft 8s 5s 9 11 mph 1016.6mb 85f 86f
10:50am 4ft 7s 5s 13 16 mph 1016.4mb 85f 86f
9:50am 4ft 7s 5s 16 18 mph 1015.6mb 85f 86f
8:50am 4.5ft 8s 5s 16 20 mph 1015.2mb 85f 86f
7:50am 4ft 8s 5s 18 20 mph 1014.9mb 85f 86f
6:50am 4ft 7s 5s 16 20 mph 1014.6mb 85f 86f
5:50am 3.5ft 7s 5s 16 18 mph 1014.3mb 85f 86f
4:50am 4ft 7s 5s 16 18 mph 1014.1mb 85f 86f
3:50am 4ft 8s 5s 16 18 mph 1014.2mb 85f 86f
2:50am 4.5ft 7s 5s 18 20 mph 1014.1mb 85f 85f
1:50am 4ft 6s 5s 18 20 mph 1014.3mb 85f 85f
12:50am 4.5ft 8s 5s 20 22 mph 1014.4mb 85f 85f
Sat 08/30 11:50pm 4ft 7s 5s 18 20 mph 1014.7mb 85f 85f
10:50pm 4.5ft 7s 5s 13 16 mph 1015mb 85f 85f
9:50pm 4.5ft 7s 5s 16 18 mph 1014.4mb 85f 85f
8:50pm 4.5ft 7s 5s 13 16 mph 1013.7mb 85f 81f
7:50pm 4.5ft 7s 5s 16 18 mph 1013.5mb 85f 80f
6:50pm 5ft 8s 5s 18 20 mph 1013.7mb 85f 81f
5:50pm 4ft 7s 5s 20 22 mph 1014.1mb 85f 82f
4:50pm 3.5ft 7s 5s 16 20 mph 1013.5mb 85f 82f
3:50pm 3.5ft 6s 5s 7 9 mph 1014mb 85f 82f
2:50pm 3.5ft 7s 5s 7 9 mph - 85f 80f
12:50pm 3.5ft 7s 5s 7 11 mph 1015.5mb 85f 78f
11:50am 3.5ft 7s 5s 11 13 mph 1015.1mb 85f 78f
9:50am 4ft 7s 5s 9 13 mph 1014.5mb 85f 76f
8:50am  -   -   -  18 22 mph 1013.7mb 85f 77f
7:50am 4ft 7s 5s 9
mph
1012.4mb 86f 85f
6:50am 4ft 7s 5s 11 16 mph 1012.1mb 86f 84f
5:50am 3.5ft 6s 5s 13 18 mph 1011.9mb 86f 83f
4:50am 4ft 7s 5s 13 16 mph 1011mb 86f 84f
3:50am 4.5ft 7s 5s 13 16 mph 1011.8mb 86f 84f
2:50am 4.5ft 7s 5s 13 18 mph 1012.1mb 86f 84f
1:50am 4.5ft 7s 5s 16 18 mph 1012.2mb 86f 84f
12:50am 4ft 7s 5s 16 18 mph 1012mb 86f 84f
Fri 08/29 11:50pm 4.5ft 7s 5s 16 18 mph 1011.7mb 86f 84f
10:50pm 4ft 7s 5s 13 16 mph 1011.7mb 86f 83f
9:50pm 4.5ft 7s 5s 9 11 mph 1011.8mb 86f 83f
8:50pm 4.5ft 8s 6s 7 9 mph 1011.5mb 86f 83f
7:50pm 4.5ft 8s 6s 4 7 mph 1010.4mb 86f 82f
6:50pm 4.5ft 8s 5s 9 11 mph 1009.5mb 86f 82f
5:50pm 5ft 8s 6s 11 13 mph 1009.5mb 86f 81f
4:50pm 5ft 8s 5s 13 16 mph 1009.8mb 86f 80f
3:50pm 5.5ft 7s 5s 16 20 mph 1010.8mb 86f 80f
2:50pm 5ft 7s 5s 18 20 mph 1010.9mb 86f 79f
1:50pm 5ft 7s 5s 16 18 mph 1010.6mb 86f 80f
12:50pm 5ft 7s 5s 11 13 mph 1011.3mb 86f 82f
11:50am 5.5ft 7s 5s 7 11 mph 1011.4mb 86f 84f
10:50am 5ft 6s 5s 4 7 mph 1011.4mb 86f 84f
9:50am 5ft 6s 5s 4 9 mph 1010.7mb 86f 83f
8:50am 4.5ft 8s 5s 4
mph
1010.6mb 86f 82f
7:50am 4.5ft 7s 5s 11 16 mph 1011.2mb 86f 80f
6:50am 4.5ft 6s 5s 13
mph
1009.6mb 86f 84f
5:50am 4.5ft 5s 5s 11 13 mph 1009.9mb 86f 85f
4:50am 4.5ft 7s 5s 16 18 mph 1009.5mb 86f 85f
3:50am 4.5ft 7s 5s 18 20 mph 1009.7mb 86f 85f
2:50am 4.5ft 6s 5s 16 20 mph 1010.6mb 86f 85f
1:50am 4.5ft 6s 5s 18 22 mph 1010.8mb 86f 85f
12:50am 4.5ft 5s 5s 20 25 mph 1011.3mb 86f 86f
Thu 08/28 11:50pm 4.5ft 5s 5s 20 22 mph 1011.3mb 86f 85f
10:50pm 4.5ft 6s 5s 18 22 mph 1011.3mb 86f 86f
9:50pm 4.5ft 6s 5s 18 22 mph 1011.2mb 86f 85f
8:50pm 4.5ft 7s 5s 18 22 mph 1010.8mb 86f 85f
7:50pm 5ft 6s 5s 16 18 mph 1010.6mb 86f 84f
6:50pm 4.5ft 7s 5s 11 16 mph 1011.1mb 86f 83f
5:50pm 4.5ft 6s 5s 18 20 mph 1010.9mb 86f 85f
4:50pm 4.5ft 7s 5s 18 20 mph 1010.8mb 86f 85f
3:50pm 4ft 6s 5s 11
mph
1011.1mb 86f 85f
2:50pm 4ft 6s 5s 9 11 mph 1011.7mb 86f 84f